createdAt,value
2023-04-15T00:01:13.530Z,66.02
2023-04-15T00:03:42.313Z,66.18
2023-04-15T00:06:10.378Z,66.14
2023-04-15T00:08:38.720Z,66.19
2023-04-15T00:11:06.898Z,66.25
2023-04-15T00:13:35.011Z,66.45
2023-04-15T00:16:02.953Z,66.43
2023-04-15T00:18:31.887Z,66.37
2023-04-15T00:21:00.295Z,66.37
2023-04-15T00:23:28.611Z,66.35
2023-04-15T00:25:56.961Z,66.39
2023-04-15T00:28:24.970Z,66.44
2023-04-15T00:30:53.133Z,66.57
2023-04-15T00:33:21.586Z,66.62
2023-04-15T00:35:49.524Z,66.67
2023-04-15T00:38:19.102Z,67.06
2023-04-15T00:40:47.158Z,66.95
2023-04-15T00:43:15.231Z,67.20
2023-04-15T00:45:43.660Z,67.29
2023-04-15T00:48:12.480Z,67.35
2023-04-15T00:50:40.446Z,67.46
2023-04-15T00:53:08.397Z,67.48
2023-04-15T00:55:36.509Z,67.60
2023-04-15T00:58:04.527Z,67.86
2023-04-15T01:00:32.446Z,68.28
2023-04-15T01:03:01.042Z,68.46
2023-04-15T01:05:30.660Z,68.46
2023-04-15T01:07:58.657Z,68.70
2023-04-15T01:10:27.598Z,68.95
2023-04-15T01:12:55.768Z,69.08
2023-04-15T01:15:24.553Z,69.05
2023-04-15T01:17:52.874Z,69.13
2023-04-15T01:20:22.273Z,69.36
2023-04-15T01:22:51.486Z,69.35
2023-04-15T01:25:20.770Z,69.27
2023-04-15T01:27:48.716Z,69.53
2023-04-15T01:30:17.488Z,69.66
2023-04-15T01:32:45.519Z,69.64
2023-04-15T01:35:13.927Z,69.86
2023-04-15T01:37:42.305Z,69.75
2023-04-15T01:40:10.481Z,69.88
2023-04-15T01:42:38.566Z,69.93
2023-04-15T01:45:07.398Z,69.82
2023-04-15T01:47:35.463Z,70.00
2023-04-15T01:50:03.888Z,70.01
2023-04-15T01:52:32.320Z,69.93
2023-04-15T01:55:00.245Z,70.14
2023-04-15T01:57:28.303Z,69.87
2023-04-15T01:59:56.809Z,69.86
2023-04-15T02:02:25.041Z,69.80
2023-04-15T02:04:53.745Z,69.82
2023-04-15T02:07:22.000Z,69.79
2023-04-15T02:09:50.003Z,69.74
2023-04-15T02:12:17.953Z,69.61
2023-04-15T02:14:46.450Z,69.50
2023-04-15T02:17:14.412Z,69.41
2023-04-15T02:19:44.632Z,69.35
2023-04-15T02:22:18.731Z,69.25
2023-04-15T02:24:47.630Z,69.18
2023-04-15T02:27:16.917Z,69.26
2023-04-15T02:29:46.069Z,69.22
2023-04-15T02:32:14.202Z,69.17
2023-04-15T02:34:43.205Z,69.17
2023-04-15T02:37:13.105Z,69.17
2023-04-15T02:39:41.182Z,69.13
2023-04-15T02:42:09.148Z,69.12
2023-04-15T02:44:37.828Z,69.05
2023-04-15T02:47:07.376Z,69.02
2023-04-15T02:49:35.475Z,68.96
2023-04-15T02:52:03.578Z,68.91
2023-04-15T02:54:33.066Z,68.87
2023-04-15T02:57:01.808Z,68.91
2023-04-15T02:59:29.769Z,68.82
2023-04-15T03:02:01.183Z,68.81
2023-04-15T03:04:32.529Z,68.78
2023-04-15T03:07:01.907Z,69.01
2023-04-15T03:09:30.482Z,68.86
2023-04-15T03:11:59.708Z,68.80
2023-04-15T03:14:27.778Z,68.82
2023-04-15T03:16:56.211Z,68.78
2023-04-15T03:19:25.256Z,68.70
2023-04-15T03:21:53.217Z,68.81
2023-04-15T03:24:21.292Z,68.69
2023-04-15T03:26:49.325Z,68.65
2023-04-15T03:29:18.038Z,68.76
2023-04-15T03:31:46.535Z,68.77
2023-04-15T03:34:14.488Z,68.87
2023-04-15T03:36:42.809Z,68.95
2023-04-15T03:39:10.811Z,68.94
2023-04-15T03:41:38.748Z,68.96
2023-04-15T03:44:06.885Z,68.96
2023-04-15T03:46:34.997Z,69.21
2023-04-15T03:49:03.343Z,69.58
2023-04-15T03:51:31.871Z,69.68
2023-04-15T03:53:59.880Z,69.57
2023-04-15T03:56:28.081Z,69.53
2023-04-15T03:58:56.326Z,69.55
2023-04-15T04:01:24.397Z,69.71
2023-04-15T04:03:52.568Z,69.83
2023-04-15T04:06:20.752Z,69.79
2023-04-15T04:08:48.817Z,69.81
2023-04-15T04:11:17.360Z,69.87
2023-04-15T04:13:45.580Z,69.99
2023-04-15T04:16:13.670Z,70.13
2023-04-15T04:18:41.624Z,69.86
2023-04-15T04:21:09.691Z,70.16
2023-04-15T04:23:37.669Z,70.24
2023-04-15T04:26:05.711Z,70.23
2023-04-15T04:28:33.650Z,70.17
2023-04-15T04:31:01.870Z,70.25
2023-04-15T04:33:29.836Z,70.10
2023-04-15T04:35:57.771Z,69.98
2023-04-15T04:38:26.167Z,69.93
2023-04-15T04:40:54.237Z,70.01
2023-04-15T04:43:22.693Z,70.02
2023-04-15T04:45:50.740Z,69.99
2023-04-15T04:48:18.803Z,69.77
2023-04-15T04:50:47.338Z,69.71
2023-04-15T04:53:15.404Z,69.51
2023-04-15T04:55:43.348Z,69.41
2023-04-15T04:58:11.855Z,69.11
2023-04-15T05:00:41.314Z,68.90
2023-04-15T05:03:09.832Z,67.71
2023-04-15T05:05:39.747Z,66.07
2023-04-15T05:08:07.816Z,63.77
2023-04-15T05:10:36.517Z,61.33
2023-04-15T05:13:04.691Z,59.82
2023-04-15T05:15:33.578Z,59.17
2023-04-15T05:18:01.712Z,57.79
2023-04-15T05:20:30.026Z,57.02
2023-04-15T05:22:57.946Z,57.30
2023-04-15T05:25:26.220Z,56.82
2023-04-15T05:27:54.114Z,55.92
2023-04-15T05:30:22.804Z,55.49
2023-04-15T05:32:51.137Z,55.77
2023-04-15T05:35:19.335Z,55.05
2023-04-15T05:37:47.874Z,54.57
2023-04-15T05:40:16.428Z,51.85
2023-04-15T05:42:44.393Z,51.43
2023-04-15T05:45:12.397Z,50.04
2023-04-15T05:47:40.487Z,49.46
2023-04-15T05:50:09.501Z,49.71
2023-04-15T05:52:37.471Z,50.20
2023-04-15T05:55:06.414Z,50.60
2023-04-15T05:57:34.349Z,50.19
2023-04-15T06:00:02.312Z,50.55
2023-04-15T06:02:37.925Z,50.94
2023-04-15T06:05:10.918Z,51.02
2023-04-15T06:07:39.133Z,51.53
2023-04-15T06:10:08.030Z,52.11
2023-04-15T06:12:36.283Z,52.35
2023-04-15T06:15:06.767Z,52.74
2023-04-15T06:17:34.828Z,52.21
2023-04-15T06:20:03.865Z,52.14
2023-04-15T06:22:31.877Z,52.32
2023-04-15T06:24:59.943Z,52.28
2023-04-15T06:27:27.889Z,52.18
2023-04-15T06:29:55.888Z,51.48
2023-04-15T06:32:23.852Z,51.22
2023-04-15T06:34:51.838Z,51.16
2023-04-15T06:37:19.871Z,51.57
2023-04-15T06:39:48.035Z,52.07
2023-04-15T06:42:16.314Z,52.31
2023-04-15T06:44:44.384Z,52.75
2023-04-15T06:47:14.805Z,52.99
2023-04-15T06:49:43.283Z,53.13
2023-04-15T06:52:11.564Z,52.83
2023-04-15T06:54:39.566Z,53.06
2023-04-15T06:57:08.020Z,53.19
2023-04-15T06:59:36.294Z,53.21
2023-04-15T07:02:05.012Z,53.58
2023-04-15T07:04:33.788Z,53.98
2023-04-15T07:07:02.857Z,54.08
2023-04-15T07:09:31.642Z,54.07
2023-04-15T07:11:59.718Z,54.25
2023-04-15T07:14:28.090Z,54.16
2023-04-15T07:16:56.558Z,53.88
2023-04-15T07:19:24.700Z,54.25
2023-04-15T07:21:52.724Z,54.24
2023-04-15T07:24:20.837Z,54.32
2023-04-15T07:26:48.961Z,54.10
2023-04-15T07:29:17.334Z,53.91
2023-04-15T07:31:45.296Z,54.11
2023-04-15T07:34:13.304Z,54.52
2023-04-15T07:36:41.275Z,54.57
2023-04-15T07:39:09.309Z,54.81
2023-04-15T07:41:37.517Z,55.18
2023-04-15T07:44:05.576Z,55.58
2023-04-15T07:46:33.691Z,56.31
2023-04-15T07:49:02.040Z,56.37
2023-04-15T07:51:30.780Z,56.60
2023-04-15T07:53:59.172Z,56.90
2023-04-15T07:56:27.307Z,57.22
2023-04-15T07:58:55.277Z,57.13
2023-04-15T08:01:23.243Z,57.31
2023-04-15T08:03:51.785Z,57.73
2023-04-15T08:06:19.936Z,57.56
2023-04-15T08:08:48.353Z,57.15
2023-04-15T08:11:16.381Z,57.20
2023-04-15T08:13:44.341Z,57.39
2023-04-15T08:16:14.669Z,57.28
2023-04-15T08:18:42.696Z,57.54
2023-04-15T08:21:11.410Z,57.82
2023-04-15T08:23:39.623Z,58.21
2023-04-15T08:26:08.835Z,58.57
2023-04-15T08:28:40.135Z,58.55
2023-04-15T08:31:09.620Z,58.67
2023-04-15T08:33:37.774Z,58.99
2023-04-15T08:36:06.813Z,59.04
2023-04-15T08:38:35.218Z,59.42
2023-04-15T08:41:13.597Z,59.57
2023-04-15T08:43:49.549Z,59.91
2023-04-15T08:46:18.001Z,59.91
2023-04-15T08:48:48.186Z,59.61
2023-04-15T08:51:17.888Z,59.56
2023-04-15T08:53:47.553Z,59.61
2023-04-15T08:56:16.979Z,59.47
2023-04-15T08:58:46.667Z,58.94
2023-04-15T09:01:15.208Z,58.74
2023-04-15T09:03:44.144Z,57.88
2023-04-15T09:06:12.467Z,57.29
2023-04-15T09:08:40.709Z,55.89
2023-04-15T09:11:08.856Z,55.40
2023-04-15T09:13:37.256Z,55.19
2023-04-15T09:16:06.477Z,55.04
2023-04-15T09:18:36.271Z,55.60
2023-04-15T09:21:09.663Z,55.68
2023-04-15T09:23:40.100Z,55.78
2023-04-15T09:26:08.564Z,55.69
2023-04-15T09:28:43.649Z,55.68
2023-04-15T09:31:12.242Z,56.18
2023-04-15T09:33:56.504Z,56.63
2023-04-15T09:36:25.316Z,56.98
2023-04-15T09:38:59.366Z,57.08
2023-04-15T09:41:28.738Z,57.10
2023-04-15T09:43:56.901Z,57.18
2023-04-15T09:46:44.539Z,57.09
2023-04-15T09:49:13.617Z,57.47
2023-04-15T09:51:43.401Z,57.73
2023-04-15T09:54:22.589Z,57.57
2023-04-15T09:56:50.637Z,57.49
2023-04-15T09:59:20.102Z,57.52
2023-04-15T10:01:49.386Z,57.61
2023-04-15T10:04:18.233Z,57.82
2023-04-15T10:06:47.426Z,57.83
2023-04-15T10:09:15.367Z,58.09
2023-04-15T10:11:44.412Z,58.17
2023-04-15T10:14:16.121Z,58.47
2023-04-15T10:16:49.173Z,58.47
2023-04-15T10:19:22.009Z,58.71
2023-04-15T10:21:50.797Z,58.82
2023-04-15T10:24:19.644Z,59.20
2023-04-15T10:26:48.129Z,59.44
2023-04-15T10:29:17.062Z,59.64
2023-04-15T10:31:45.520Z,60.26
2023-04-15T10:34:14.156Z,60.45
2023-04-15T10:36:42.133Z,60.30
2023-04-15T10:39:55.271Z,60.39
2023-04-15T10:42:23.290Z,60.34
2023-04-15T10:44:57.297Z,60.50
2023-04-15T10:47:25.695Z,60.37
2023-04-15T10:50:02.624Z,59.96
2023-04-15T10:52:30.657Z,59.84
2023-04-15T10:55:10.814Z,59.52
2023-04-15T10:57:40.480Z,59.55
2023-04-15T11:00:09.094Z,59.43
2023-04-15T11:02:47.746Z,59.28
2023-04-15T11:05:17.807Z,59.58
2023-04-15T11:07:52.348Z,59.88
2023-04-15T11:10:26.333Z,60.06
2023-04-15T11:12:59.441Z,60.21
2023-04-15T11:15:41.772Z,60.17
2023-04-15T11:18:20.420Z,60.69
2023-04-15T11:20:50.843Z,60.89
2023-04-15T11:23:20.674Z,61.25
2023-04-15T11:25:48.922Z,61.40
2023-04-15T11:28:16.877Z,61.58
2023-04-15T11:30:45.000Z,61.70
2023-04-15T11:33:14.012Z,61.98
2023-04-15T11:35:42.464Z,62.32
2023-04-15T11:38:13.061Z,62.38
2023-04-15T11:40:44.562Z,62.55
2023-04-15T11:43:18.713Z,62.97
2023-04-15T11:45:57.126Z,63.16
2023-04-15T11:48:33.507Z,63.63
2023-04-15T11:51:07.041Z,63.95
2023-04-15T11:53:47.210Z,64.26
2023-04-15T11:56:25.158Z,64.48
2023-04-15T11:58:57.383Z,64.50
2023-04-15T12:01:46.945Z,64.29
2023-04-15T12:04:20.885Z,64.25
2023-04-15T12:06:51.285Z,64.49
2023-04-15T12:09:20.520Z,64.61
2023-04-15T12:11:48.584Z,64.90
2023-04-15T12:14:29.545Z,65.03
2023-04-15T12:17:03.662Z,65.35
2023-04-15T12:19:42.434Z,65.36
2023-04-15T12:22:15.740Z,65.50
2023-04-15T12:24:47.972Z,65.60
2023-04-15T12:27:17.686Z,65.69
2023-04-15T12:29:45.808Z,65.77
2023-04-15T12:32:19.929Z,65.97
2023-04-15T12:34:52.510Z,66.19
2023-04-15T12:37:21.268Z,66.19
2023-04-15T12:39:50.631Z,66.09
2023-04-15T12:42:19.124Z,66.15
2023-04-15T12:44:47.479Z,66.12
2023-04-15T12:47:16.128Z,66.13
2023-04-15T12:49:44.191Z,66.27
2023-04-15T12:52:12.171Z,66.13
2023-04-15T12:54:40.111Z,65.99
2023-04-15T12:57:08.381Z,65.85
2023-04-15T12:59:36.679Z,66.00
2023-04-15T13:02:04.907Z,65.87
2023-04-15T13:04:33.335Z,65.82
2023-04-15T13:07:02.470Z,65.86
2023-04-15T13:09:31.753Z,65.74
2023-04-15T13:11:59.885Z,65.65
2023-04-15T13:14:27.842Z,65.55
2023-04-15T13:16:56.015Z,65.72
2023-04-15T13:19:23.997Z,65.34
2023-04-15T13:21:51.974Z,65.16
2023-04-15T13:24:20.036Z,65.22
2023-04-15T13:26:50.142Z,65.33
2023-04-15T13:29:18.944Z,65.11
2023-04-15T13:31:47.104Z,64.93
2023-04-15T13:34:15.051Z,64.93
2023-04-15T13:36:43.062Z,64.85
2023-04-15T13:39:11.171Z,64.41
2023-04-15T13:41:39.194Z,64.19
2023-04-15T13:44:07.313Z,64.08
2023-04-15T13:46:35.669Z,64.24
2023-04-15T13:49:03.642Z,64.29
2023-04-15T13:51:32.073Z,64.16
2023-04-15T13:54:00.013Z,64.38
2023-04-15T13:56:27.951Z,64.23
2023-04-15T13:58:59.094Z,64.40
2023-04-15T14:01:27.475Z,64.24
2023-04-15T14:03:56.248Z,64.35
2023-04-15T14:06:24.913Z,64.33
2023-04-15T14:08:53.260Z,64.37
2023-04-15T14:11:21.205Z,64.06
2023-04-15T14:13:49.147Z,64.43
2023-04-15T14:16:17.120Z,64.61
2023-04-15T14:18:45.364Z,64.62
2023-04-15T14:21:13.422Z,64.69
2023-04-15T14:23:41.457Z,64.52
2023-04-15T14:26:09.480Z,64.69
2023-04-15T14:28:39.217Z,64.73
2023-04-15T14:31:07.579Z,64.75
2023-04-15T14:33:35.617Z,64.87
2023-04-15T14:36:04.153Z,64.86
2023-04-15T14:38:33.918Z,64.81
2023-04-15T14:41:02.214Z,64.87
2023-04-15T14:43:30.257Z,64.89
2023-04-15T14:45:58.306Z,65.00
2023-04-15T14:48:26.591Z,65.03
2023-04-15T14:50:54.678Z,64.95
2023-04-15T14:53:22.610Z,65.00
2023-04-15T14:55:50.616Z,65.08
2023-04-15T14:58:20.411Z,65.45
2023-04-15T15:00:48.494Z,65.60
2023-04-15T15:03:16.882Z,65.44
2023-04-15T15:05:47.025Z,65.00
2023-04-15T15:08:15.507Z,64.76
2023-04-15T15:10:48.524Z,64.68
2023-04-15T15:13:19.098Z,65.01
2023-04-15T15:15:49.871Z,65.08
2023-04-15T15:18:19.424Z,65.38
2023-04-15T15:20:47.933Z,65.85
2023-04-15T15:23:16.186Z,65.89
2023-04-15T15:25:45.908Z,66.16
2023-04-15T15:28:14.073Z,66.56
2023-04-15T15:30:42.135Z,66.98
2023-04-15T15:33:10.085Z,67.41
2023-04-15T15:35:38.174Z,67.79
2023-04-15T15:38:06.505Z,68.42
2023-04-15T15:40:34.531Z,68.79
2023-04-15T15:43:03.105Z,69.29
2023-04-15T15:45:31.254Z,69.63
2023-04-15T15:48:00.391Z,69.75
2023-04-15T15:50:28.528Z,70.01
2023-04-15T15:52:56.593Z,70.15
2023-04-15T15:55:26.023Z,70.01
2023-04-15T15:57:54.567Z,70.13
2023-04-15T16:00:23.368Z,70.02
2023-04-15T16:03:06.847Z,70.10
2023-04-15T16:05:36.548Z,70.51
2023-04-15T16:08:05.068Z,70.59
2023-04-15T16:10:33.358Z,71.00
2023-04-15T16:13:02.158Z,71.24
2023-04-15T16:15:30.330Z,71.87
2023-04-15T16:17:58.366Z,72.33
2023-04-15T16:20:28.378Z,72.49
2023-04-15T16:22:58.464Z,73.27
2023-04-15T16:25:26.757Z,73.67
2023-04-15T16:28:05.394Z,73.76
2023-04-15T16:30:38.883Z,74.02
2023-04-15T16:33:07.572Z,73.89
2023-04-15T16:35:35.588Z,74.23
2023-04-15T16:38:03.765Z,74.33
2023-04-15T16:40:31.844Z,74.39
2023-04-15T16:42:59.799Z,74.52
2023-04-15T16:45:27.767Z,74.64
2023-04-15T16:47:57.057Z,74.55
2023-04-15T16:50:25.248Z,74.32
2023-04-15T16:52:53.420Z,74.39
2023-04-15T16:55:21.637Z,74.33
2023-04-15T16:58:01.507Z,74.62
2023-04-15T17:00:37.096Z,74.89
2023-04-15T17:03:06.288Z,75.15
2023-04-15T17:05:34.758Z,75.55
2023-04-15T17:08:02.730Z,75.52
2023-04-15T17:10:31.362Z,75.60
2023-04-15T17:12:59.970Z,75.69
2023-04-15T17:15:27.941Z,75.99
2023-04-15T17:17:56.029Z,75.95
2023-04-15T17:20:24.153Z,76.09
2023-04-15T17:22:52.254Z,76.30
2023-04-15T17:25:20.349Z,76.54
2023-04-15T17:27:48.265Z,76.47
2023-04-15T17:30:16.263Z,76.96
2023-04-15T17:32:44.406Z,77.03
2023-04-15T17:35:12.357Z,76.91
2023-04-15T17:37:40.506Z,77.29
2023-04-15T17:40:09.194Z,77.49
2023-04-15T17:42:37.199Z,77.69
2023-04-15T17:45:05.877Z,77.86
2023-04-15T17:47:33.937Z,78.25
2023-04-15T17:50:01.912Z,78.32
2023-04-15T17:52:29.898Z,78.69
2023-04-15T17:54:57.785Z,78.53
2023-04-15T17:57:25.755Z,78.44
2023-04-15T17:59:53.850Z,78.59
2023-04-15T18:02:21.969Z,78.48
2023-04-15T18:04:50.316Z,78.46
2023-04-15T18:07:18.477Z,78.33
2023-04-15T18:09:46.607Z,78.17
2023-04-15T18:12:14.613Z,78.01
2023-04-15T18:14:42.674Z,77.81
2023-04-15T18:17:11.346Z,77.81
2023-04-15T18:19:39.254Z,78.20
2023-04-15T18:22:07.378Z,77.96
2023-04-15T18:24:35.545Z,78.08
2023-04-15T18:27:04.087Z,78.10
2023-04-15T18:29:32.124Z,78.04
2023-04-15T18:32:03.101Z,78.00
2023-04-15T18:34:31.335Z,78.20
2023-04-15T18:36:59.434Z,78.03
2023-04-15T18:39:27.898Z,78.08
2023-04-15T18:41:57.398Z,78.11
2023-04-15T18:44:25.456Z,78.13
2023-04-15T18:46:53.448Z,78.17
2023-04-15T18:49:21.512Z,78.33
2023-04-15T18:51:49.715Z,78.98
2023-04-15T18:54:17.746Z,78.65
2023-04-15T18:56:45.919Z,78.75
2023-04-15T18:59:29.106Z,78.91
2023-04-15T19:02:00.165Z,79.37
2023-04-15T19:04:31.065Z,79.66
2023-04-15T19:06:59.387Z,79.66
2023-04-15T19:09:29.401Z,80.19
2023-04-15T19:11:57.789Z,80.06
2023-04-15T19:14:25.973Z,80.03
2023-04-15T19:16:54.099Z,80.24
2023-04-15T19:19:22.273Z,80.16
2023-04-15T19:21:50.590Z,80.38
2023-04-15T19:24:19.455Z,80.27
2023-04-15T19:26:49.026Z,80.25
2023-04-15T19:29:17.734Z,80.30
2023-04-15T19:31:45.778Z,80.45
2023-04-15T19:34:13.769Z,80.30
2023-04-15T19:36:42.186Z,80.36
2023-04-15T19:39:10.434Z,80.45
2023-04-15T19:41:39.454Z,80.38
2023-04-15T19:44:07.515Z,80.68
2023-04-15T19:46:35.841Z,80.40
2023-04-15T19:49:04.366Z,80.39
2023-04-15T19:51:32.590Z,80.01
2023-04-15T19:54:00.940Z,80.23
2023-04-15T19:56:29.539Z,80.15
2023-04-15T19:58:57.700Z,80.00
2023-04-15T20:01:26.016Z,80.27
2023-04-15T20:03:54.700Z,80.30
2023-04-15T20:06:22.894Z,80.30
2023-04-15T20:08:50.941Z,80.40
2023-04-15T20:11:19.224Z,80.21
2023-04-15T20:13:47.242Z,80.13
2023-04-15T20:16:15.214Z,80.15
2023-04-15T20:18:43.272Z,80.04
2023-04-15T20:21:11.238Z,79.89
2023-04-15T20:23:40.124Z,79.68
2023-04-15T20:26:08.302Z,79.60
2023-04-15T20:28:36.271Z,79.39
2023-04-15T20:31:04.307Z,78.91
2023-04-15T20:33:32.410Z,78.38
2023-04-15T20:36:00.491Z,78.40
2023-04-15T20:38:28.650Z,78.03
2023-04-15T20:40:57.955Z,77.98
2023-04-15T20:43:26.329Z,77.78
2023-04-15T20:45:57.523Z,77.74
2023-04-15T20:48:25.854Z,77.61
2023-04-15T20:50:53.795Z,77.60
2023-04-15T20:53:22.101Z,77.62
2023-04-15T20:55:50.140Z,77.78
2023-04-15T20:58:18.140Z,77.84
2023-04-15T21:00:46.562Z,77.96
2023-04-15T21:03:14.737Z,77.87
2023-04-15T21:05:42.859Z,78.01
2023-04-15T21:08:10.810Z,78.10
2023-04-15T21:10:40.228Z,78.09
2023-04-15T21:13:08.413Z,78.26
2023-04-15T21:15:36.550Z,78.35
2023-04-15T21:18:04.470Z,78.33
2023-04-15T21:20:32.369Z,78.49
2023-04-15T21:23:00.376Z,78.54
2023-04-15T21:25:28.341Z,78.47
2023-04-15T21:27:56.300Z,78.68
2023-04-15T21:30:24.268Z,78.98
2023-04-15T21:32:52.402Z,78.95
2023-04-15T21:35:20.419Z,79.17
2023-04-15T21:37:48.388Z,79.18
2023-04-15T21:40:16.468Z,79.13
2023-04-15T21:42:44.627Z,79.14
2023-04-15T21:45:12.710Z,78.96
2023-04-15T21:48:05.320Z,78.81
2023-04-15T21:50:28.552Z,78.69
2023-04-15T21:52:56.778Z,78.80
2023-04-15T21:55:24.884Z,78.78
2023-04-15T21:57:52.880Z,78.73
2023-04-15T22:00:23.145Z,78.75
2023-04-15T22:02:52.270Z,78.65
2023-04-15T22:05:20.614Z,78.58
2023-04-15T22:07:48.635Z,78.49
2023-04-15T22:10:16.863Z,78.35
2023-04-15T22:12:44.778Z,77.99
2023-04-15T22:15:12.853Z,77.73
2023-04-15T22:17:40.897Z,77.53
2023-04-15T22:20:09.633Z,77.36
2023-04-15T22:22:44.134Z,77.12
2023-04-15T22:25:12.786Z,76.97
2023-04-15T22:27:41.066Z,77.23
2023-04-15T22:30:10.625Z,77.16
2023-04-15T22:32:38.749Z,77.22
2023-04-15T22:35:07.594Z,77.39
2023-04-15T22:37:35.707Z,77.31
2023-04-15T22:40:03.930Z,76.99
2023-04-15T22:42:32.118Z,77.04
2023-04-15T22:45:00.099Z,77.31
2023-04-15T22:47:28.275Z,77.31
2023-04-15T22:49:56.326Z,77.30
2023-04-15T22:52:30.632Z,77.36
2023-04-15T22:54:59.790Z,77.43
2023-04-15T22:57:28.732Z,77.23
2023-04-15T22:59:56.856Z,77.50
2023-04-15T23:02:24.883Z,77.53
2023-04-15T23:04:53.332Z,77.77
2023-04-15T23:07:21.445Z,77.89
2023-04-15T23:09:49.571Z,77.87
2023-04-15T23:12:17.761Z,77.83
2023-04-15T23:14:45.857Z,77.68
2023-04-15T23:17:13.808Z,77.63
2023-04-15T23:19:41.726Z,77.56
2023-04-15T23:22:12.230Z,77.37
2023-04-15T23:24:40.212Z,77.19
2023-04-15T23:27:08.170Z,77.01
2023-04-15T23:29:36.497Z,77.34
2023-04-15T23:32:04.761Z,77.41
2023-04-15T23:34:32.806Z,77.41
2023-04-15T23:37:01.148Z,77.58
2023-04-15T23:39:30.604Z,77.82
2023-04-15T23:41:58.562Z,78.05
2023-04-15T23:44:27.150Z,78.06
2023-04-15T23:46:55.206Z,77.99
2023-04-15T23:49:23.351Z,78.04
2023-04-15T23:51:51.470Z,77.99
2023-04-15T23:54:19.425Z,78.16
2023-04-15T23:56:48.254Z,78.26
2023-04-15T23:59:16.444Z,78.25
